Time;durP1;ratioP1;P1;durP2;ratioP2;P2;SDS_P1;SDS_P2;PMS_P1;PMS_P2;Temp;Humidity;BMP_temperature;BMP_pressure;BME280_temperature;BME280_humidity;BME280_pressure;Samples;Min_cycle;Max_cycle;Signal;HPM_P1;HPM_P2
2023/02/25 00:00:37;;;;;;;15.73;8.82;;;4.10;99.90;;;;;;4972642;28;20027;-52
2023/02/25 00:03:23;;;;;;;15.55;8.13;;;4.00;99.90;;;;;;4974384;28;20073;-53
2023/02/25 00:06:12;;;;;;;15.52;8.23;;;4.00;99.90;;;;;;4974063;28;20062;-52
2023/02/25 00:08:58;;;;;;;15.00;6.90;;;4.10;99.90;;;;;;4974833;28;20073;-57
2023/02/25 00:11:44;;;;;;;13.75;7.18;;;4.10;99.90;;;;;;4974814;28;20053;-57
2023/02/25 00:14:30;;;;;;;18.52;7.00;;;4.20;99.90;;;;;;4976568;28;20396;-56
2023/02/25 00:17:15;;;;;;;17.10;7.05;;;4.20;99.90;;;;;;4975486;28;20030;-55
2023/02/25 00:20:04;;;;;;;18.90;6.88;;;4.10;99.90;;;;;;4977247;28;20515;-55
2023/02/25 00:22:50;;;;;;;14.48;6.30;;;4.10;99.90;;;;;;4973981;28;20031;-56
2023/02/25 00:25:36;;;;;;;15.30;6.30;;;4.10;99.90;;;;;;4974987;28;20495;-55
2023/02/25 00:28:24;;;;;;;10.85;5.60;;;4.10;99.90;;;;;;4973964;28;20500;-54
2023/02/25 00:31:20;;;;;;;15.18;6.20;;;4.10;99.90;;;;;;4974745;28;20134;-56
2023/02/25 00:34:11;;;;;;;15.80;5.43;;;4.10;99.90;;;;;;4974555;28;20626;-55
2023/02/25 00:36:57;;;;;;;16.52;5.82;;;4.10;99.90;;;;;;4972894;28;20043;-52
2023/02/25 00:39:43;;;;;;;11.02;5.05;;;4.10;99.90;;;;;;4971183;28;20023;-52
2023/02/25 00:42:29;;;;;;;15.98;5.70;;;4.10;99.90;;;;;;4972742;28;20119;-57
2023/02/25 00:45:16;;;;;;;15.70;5.43;;;4.10;99.90;;;;;;4971949;28;20042;-55
2023/02/25 00:48:02;;;;;;;15.77;5.00;;;4.00;99.90;;;;;;4972510;28;20031;-51
2023/02/25 00:50:48;;;;;;;12.05;4.47;;;4.00;99.90;;;;;;4973310;28;20134;-54
2023/02/25 00:53:34;;;;;;;20.00;5.07;;;4.10;99.90;;;;;;4968068;28;20109;-54
2023/02/25 00:56:21;;;;;;;13.20;5.10;;;4.10;99.90;;;;;;4971427;28;20110;-55
2023/02/25 00:59:07;;;;;;;14.32;5.30;;;4.10;99.90;;;;;;4972697;28;20027;-52
2023/02/25 01:01:53;;;;;;;12.70;4.30;;;4.10;99.90;;;;;;4972767;28;20381;-51
2023/02/25 01:04:39;;;;;;;17.23;5.10;;;4.10;99.90;;;;;;4972185;28;20511;-53
2023/02/25 01:07:25;;;;;;;12.02;4.85;;;4.10;99.90;;;;;;4962284;28;20069;-55
2023/02/25 01:10:10;;;;;;;15.25;5.05;;;4.00;99.90;;;;;;4971446;28;20023;-51
2023/02/25 01:12:56;;;;;;;21.90;4.95;;;4.10;99.90;;;;;;4959038;28;20039;-52
2023/02/25 01:15:43;;;;;;;24.27;4.90;;;4.10;99.90;;;;;;4973173;28;20058;-54
2023/02/25 01:18:29;;;;;;;17.77;5.40;;;4.10;99.90;;;;;;4968794;28;20411;-54
2023/02/25 01:21:25;;;;;;;12.75;4.60;;;4.10;99.90;;;;;;4971189;28;20027;-55
2023/02/25 01:24:19;;;;;;;22.13;5.03;;;4.00;99.90;;;;;;4971886;28;20023;-57
2023/02/25 01:27:05;;;;;;;14.27;4.03;;;4.00;99.90;;;;;;4971873;28;20031;-55
2023/02/25 01:29:51;;;;;;;13.65;3.75;;;4.00;99.90;;;;;;4972902;28;20026;-52
2023/02/25 01:32:37;;;;;;;13.55;3.88;;;4.00;99.90;;;;;;4972351;28;20035;-57
2023/02/25 01:35:23;;;;;;;10.55;3.78;;;4.00;99.90;;;;;;4960336;28;20539;-52
2023/02/25 01:38:09;;;;;;;10.13;4.13;;;4.00;99.90;;;;;;4971806;28;20039;-52
2023/02/25 01:41:00;;;;;;;12.10;3.50;;;3.90;99.90;;;;;;4971585;28;20381;-51
2023/02/25 01:44:05;;;;;;;10.55;4.10;;;3.80;99.90;;;;;;4972223;28;20027;-53
2023/02/25 01:46:52;;;;;;;6.87;3.30;;;3.80;99.90;;;;;;4972227;28;20038;-55
2023/02/25 01:49:44;;;;;;;7.22;3.92;;;3.60;99.90;;;;;;4971876;28;20033;-54
2023/02/25 01:52:30;;;;;;;15.02;3.72;;;3.60;99.90;;;;;;4972155;28;20089;-53
2023/02/25 01:55:17;;;;;;;11.98;4.15;;;3.60;99.90;;;;;;4971194;28;20114;-53
2023/02/25 01:58:03;;;;;;;12.55;4.00;;;3.60;99.90;;;;;;4971699;28;20039;-54
2023/02/25 02:00:54;;;;;;;15.88;4.65;;;3.70;99.90;;;;;;4971068;28;20071;-54
2023/02/25 02:03:41;;;;;;;13.10;4.47;;;3.60;99.90;;;;;;4958493;28;20027;-54
2023/02/25 02:06:33;;;;;;;11.18;4.07;;;3.60;99.90;;;;;;4970566;28;20038;-51
2023/02/25 02:09:23;;;;;;;19.92;4.97;;;3.70;99.90;;;;;;4971906;28;20027;-52
2023/02/25 02:12:08;;;;;;;15.85;4.00;;;3.70;99.90;;;;;;4972386;28;20035;-50
2023/02/25 02:14:57;;;;;;;13.98;4.68;;;3.60;99.90;;;;;;4971376;28;20110;-56
2023/02/25 02:17:58;;;;;;;14.50;4.82;;;3.80;99.90;;;;;;4970803;28;20023;-52
2023/02/25 02:20:55;;;;;;;16.30;4.88;;;3.80;99.90;;;;;;4971677;28;20014;-56
2023/02/25 02:24:24;;;;;;;8.73;4.05;;;3.90;99.90;;;;;;4965247;28;20038;-58
2023/02/25 02:27:18;;;;;;;12.15;4.35;;;3.80;99.90;;;;;;4960613;28;20035;-55
2023/02/25 02:30:25;;;;;;;9.32;4.35;;;3.70;99.90;;;;;;4971254;28;20030;-55
2023/02/25 02:33:28;;;;;;;9.23;3.60;;;3.70;99.90;;;;;;4971932;28;20041;-55
2023/02/25 02:36:35;;;;;;;10.68;4.57;;;3.70;99.90;;;;;;4971426;28;20034;-54
2023/02/25 02:39:26;;;;;;;10.43;3.65;;;3.80;99.90;;;;;;4954194;28;20050;-52
2023/02/25 02:42:20;;;;;;;7.53;3.30;;;3.80;99.90;;;;;;4962132;28;20054;-53
2023/02/25 02:45:20;;;;;;;12.15;3.58;;;3.80;99.90;;;;;;4972027;28;20436;-52
2023/02/25 02:48:42;;;;;;;9.63;3.63;;;4.00;99.90;;;;;;4971413;28;20022;-51
2023/02/25 02:51:40;;;;;;;12.95;4.60;;;4.00;99.90;;;;;;4968309;28;20535;-51
2023/02/25 02:54:31;;;;;;;12.23;5.38;;;4.00;99.90;;;;;;4957974;28;20062;-55
2023/02/25 02:57:20;;;;;;;11.73;4.57;;;4.10;99.90;;;;;;4963314;28;20031;-52
2023/02/25 03:00:16;;;;;;;9.63;3.50;;;4.00;99.90;;;;;;4971580;28;20535;-52
2023/02/25 03:03:35;;;;;;;10.20;3.80;;;3.90;99.90;;;;;;4971059;28;20035;-54
2023/02/25 03:06:24;;;;;;;14.48;4.22;;;4.00;99.90;;;;;;4974511;28;20173;-54
2023/02/25 03:09:21;;;;;;;12.00;4.32;;;3.90;99.90;;;;;;4973823;28;20030;-50
2023/02/25 03:12:07;;;;;;;10.07;3.80;;;3.90;99.90;;;;;;4974588;28;20046;-55
2023/02/25 03:14:53;;;;;;;10.95;4.00;;;3.90;99.90;;;;;;4974698;28;20041;-51
2023/02/25 03:17:49;;;;;;;15.00;4.40;;;4.00;99.90;;;;;;4974030;28;20031;-51
2023/02/25 03:20:40;;;;;;;9.68;3.55;;;4.00;99.90;;;;;;4974351;28;20058;-53
2023/02/25 03:23:30;;;;;;;11.18;4.30;;;4.00;99.90;;;;;;4974631;28;20026;-56
2023/02/25 03:26:26;;;;;;;16.08;4.60;;;4.00;99.90;;;;;;4974471;28;20500;-52
2023/02/25 03:29:16;;;;;;;12.27;3.42;;;4.00;99.90;;;;;;4974308;28;20079;-51
2023/02/25 03:32:09;;;;;;;5.25;2.70;;;4.00;99.90;;;;;;4965263;28;20046;-54
2023/02/25 03:34:56;;;;;;;12.93;4.38;;;3.90;99.90;;;;;;4974593;28;20483;-51
2023/02/25 03:37:45;;;;;;;9.18;3.08;;;3.60;99.90;;;;;;4974428;28;20030;-54
2023/02/25 03:40:32;;;;;;;6.10;3.58;;;3.40;99.90;;;;;;4975549;28;20114;-54
2023/02/25 03:43:26;;;;;;;9.27;3.22;;;3.30;99.90;;;;;;4960905;28;20102;-55
2023/02/25 03:46:15;;;;;;;11.88;4.45;;;3.30;99.90;;;;;;4975089;28;20033;-56
2023/02/25 03:49:05;;;;;;;5.72;3.10;;;3.20;99.90;;;;;;4956334;28;20166;-57
2023/02/25 03:51:55;;;;;;;7.28;3.45;;;3.10;99.90;;;;;;4958297;28;20031;-55
2023/02/25 03:54:41;;;;;;;5.25;2.92;;;3.00;99.90;;;;;;4974885;28;20093;-53
2023/02/25 03:57:44;;;;;;;4.53;3.08;;;2.90;99.90;;;;;;4973928;28;20038;-55
2023/02/25 04:00:32;;;;;;;4.85;2.78;;;2.70;99.90;;;;;;4975128;28;20027;-54
2023/02/25 04:03:17;;;;;;;6.07;2.83;;;2.70;99.90;;;;;;4974896;28;20023;-53
2023/02/25 04:06:04;;;;;;;7.15;2.97;;;2.70;99.90;;;;;;4974349;28;20131;-55
2023/02/25 04:08:51;;;;;;;6.45;3.70;;;2.70;99.90;;;;;;4974316;28;20035;-54
2023/02/25 04:11:37;;;;;;;6.95;3.35;;;2.90;99.90;;;;;;4974400;28;20466;-55
2023/02/25 04:14:23;;;;;;;9.05;3.20;;;3.00;99.90;;;;;;4955334;29;20126;-54
2023/02/25 04:17:10;;;;;;;6.18;3.88;;;3.10;99.90;;;;;;4954860;28;20070;-53
2023/02/25 04:19:56;;;;;;;8.23;3.53;;;3.10;99.90;;;;;;4959200;28;20038;-52
2023/02/25 04:22:42;;;;;;;8.15;3.17;;;3.10;99.90;;;;;;4974854;28;20093;-53
2023/02/25 04:25:28;;;;;;;5.97;3.13;;;3.20;99.90;;;;;;4973865;28;20015;-52
2023/02/25 04:28:14;;;;;;;7.35;2.72;;;3.40;99.90;;;;;;4973311;28;20035;-53
2023/02/25 04:31:00;;;;;;;6.20;2.67;;;3.50;99.90;;;;;;4973179;28;20038;-51
2023/02/25 04:33:48;;;;;;;7.32;2.67;;;3.50;99.90;;;;;;4973393;28;20035;-58
2023/02/25 04:36:35;;;;;;;4.55;2.80;;;3.50;99.90;;;;;;4972902;28;20042;-52
2023/02/25 04:39:21;;;;;;;6.38;2.65;;;3.50;99.90;;;;;;4973637;28;20085;-53
2023/02/25 04:42:07;;;;;;;4.63;2.20;;;3.60;99.90;;;;;;4973141;28;20027;-54
2023/02/25 04:44:53;;;;;;;7.55;2.50;;;3.60;99.90;;;;;;4972973;28;20642;-54
2023/02/25 04:47:39;;;;;;;6.07;2.58;;;3.70;99.90;;;;;;4953844;28;20492;-51
2023/02/25 04:50:25;;;;;;;5.03;2.17;;;3.60;99.90;;;;;;4972670;28;20503;-56
2023/02/25 04:53:11;;;;;;;5.53;2.50;;;3.80;99.90;;;;;;4972433;28;20764;-51
2023/02/25 04:56:04;;;;;;;5.13;2.28;;;3.80;99.90;;;;;;4973165;28;20026;-53
2023/02/25 04:58:50;;;;;;;2.60;2.15;;;3.80;99.90;;;;;;4973121;28;20069;-51
2023/02/25 05:01:37;;;;;;;7.53;3.47;;;3.60;99.90;;;;;;4973003;28;20019;-50
2023/02/25 05:04:23;;;;;;;5.05;2.53;;;3.80;99.90;;;;;;4972755;28;20030;-49
2023/02/25 05:07:09;;;;;;;5.20;2.17;;;3.80;99.90;;;;;;4972935;28;20105;-50
2023/02/25 05:09:55;;;;;;;2.90;2.10;;;3.90;99.90;;;;;;4972803;28;20030;-53
2023/02/25 05:12:41;;;;;;;5.93;2.22;;;3.70;99.90;;;;;;4972766;28;20068;-54
2023/02/25 05:15:27;;;;;;;3.33;2.20;;;3.80;99.90;;;;;;4972390;28;20638;-54
2023/02/25 05:18:13;;;;;;;5.45;2.30;;;3.70;99.90;;;;;;4972014;28;20109;-55
2023/02/25 05:20:59;;;;;;;3.92;2.50;;;3.70;99.90;;;;;;4972737;28;20039;-51
2023/02/25 05:23:47;;;;;;;5.78;2.47;;;3.60;99.90;;;;;;4971997;28;20403;-51
2023/02/25 05:26:32;;;;;;;7.20;3.10;;;3.70;99.90;;;;;;4972392;28;20030;-53
2023/02/25 05:29:19;;;;;;;5.10;2.97;;;3.60;99.90;;;;;;4971403;28;20095;-52
2023/02/25 05:32:06;;;;;;;6.63;3.20;;;3.50;99.90;;;;;;4972451;28;20062;-57
2023/02/25 05:34:51;;;;;;;7.35;3.08;;;3.60;99.90;;;;;;4972710;28;20042;-53
2023/02/25 05:37:39;;;;;;;5.90;3.00;;;3.50;99.90;;;;;;4972006;28;20527;-54
2023/02/25 05:40:25;;;;;;;6.30;2.90;;;3.50;99.90;;;;;;4972794;28;20046;-54
2023/02/25 05:43:11;;;;;;;6.60;2.97;;;3.40;99.90;;;;;;4972341;28;20109;-51
2023/02/25 05:45:59;;;;;;;6.65;3.00;;;3.50;99.90;;;;;;4971504;28;20046;-51
2023/02/25 05:48:45;;;;;;;5.93;2.80;;;3.50;99.90;;;;;;4972562;28;20534;-47
2023/02/25 05:51:31;;;;;;;4.32;2.65;;;3.40;99.90;;;;;;4971551;28;20035;-53
2023/02/25 05:54:17;;;;;;;9.68;3.00;;;3.30;99.90;;;;;;4972888;28;20035;-44
2023/02/25 05:57:03;;;;;;;5.68;3.00;;;3.40;99.90;;;;;;4971953;28;20114;-46
2023/02/25 05:59:49;;;;;;;6.72;2.60;;;3.30;99.90;;;;;;4972634;28;20027;-46
2023/02/25 06:02:36;;;;;;;6.40;3.20;;;3.40;99.90;;;;;;4953090;29;20780;-47
2023/02/25 06:05:21;;;;;;;4.25;3.10;;;3.30;99.90;;;;;;4955358;28;20504;-51
2023/02/25 06:08:09;;;;;;;7.05;3.22;;;3.30;99.90;;;;;;4972149;28;20470;-55
2023/02/25 06:10:56;;;;;;;6.15;3.30;;;3.30;99.90;;;;;;4957205;28;20035;-48
2023/02/25 06:13:42;;;;;;;10.40;4.50;;;3.30;99.90;;;;;;4972363;28;20376;-50
2023/02/25 06:16:31;;;;;;;8.48;3.83;;;3.30;99.90;;;;;;4971848;28;20041;-47
2023/02/25 06:19:17;;;;;;;9.60;3.58;;;3.30;99.90;;;;;;4972503;28;20027;-46
2023/02/25 06:22:03;;;;;;;6.75;3.72;;;3.30;99.90;;;;;;4953581;29;20077;-44
2023/02/25 06:24:49;;;;;;;6.70;4.35;;;3.20;99.90;;;;;;4967035;28;20027;-46
2023/02/25 06:27:34;;;;;;;8.65;4.22;;;3.20;99.90;;;;;;4972415;28;20031;-48
2023/02/25 06:30:20;;;;;;;6.07;4.43;;;3.20;99.90;;;;;;4973675;28;20066;-50
2023/02/25 06:33:06;;;;;;;9.00;5.00;;;3.20;99.90;;;;;;4975834;28;20031;-54
2023/02/25 06:35:53;;;;;;;6.00;3.67;;;3.10;99.90;;;;;;4954441;29;20031;-52
2023/02/25 06:38:40;;;;;;;4.65;3.65;;;3.10;99.90;;;;;;4967137;28;20019;-50
2023/02/25 06:41:26;;;;;;;10.25;4.00;;;3.10;99.90;;;;;;4977933;28;20030;-47
2023/02/25 06:44:12;;;;;;;7.72;4.00;;;3.10;99.90;;;;;;4976349;28;20027;-47
2023/02/25 06:46:58;;;;;;;6.40;3.70;;;3.20;99.90;;;;;;4975489;28;20165;-46
2023/02/25 06:49:44;;;;;;;7.45;3.47;;;3.20;99.90;;;;;;4975405;28;20035;-45
2023/02/25 06:52:30;;;;;;;8.88;3.53;;;3.20;99.90;;;;;;4974932;28;20538;-48
2023/02/25 06:55:16;;;;;;;7.55;3.42;;;3.20;99.90;;;;;;4957105;28;20042;-49
2023/02/25 06:58:02;;;;;;;6.78;3.13;;;3.20;99.90;;;;;;4958387;28;20030;-45
2023/02/25 07:00:48;;;;;;;7.60;3.28;;;3.20;99.90;;;;;;4974434;28;20054;-48
2023/02/25 07:03:34;;;;;;;7.53;3.25;;;3.10;99.90;;;;;;4975329;28;20031;-47
2023/02/25 07:06:20;;;;;;;7.10;3.00;;;3.20;99.90;;;;;;4974563;28;20115;-48
2023/02/25 07:09:06;;;;;;;6.55;3.85;;;3.20;99.90;;;;;;4974546;28;20093;-48
2023/02/25 07:11:52;;;;;;;6.03;3.05;;;3.20;99.90;;;;;;4974128;28;20034;-48
2023/02/25 07:14:38;;;;;;;4.13;3.08;;;3.20;99.90;;;;;;4976897;28;20031;-54
2023/02/25 07:17:24;;;;;;;6.25;2.95;;;3.20;99.90;;;;;;4973634;28;20035;-52
2023/02/25 07:20:10;;;;;;;4.68;3.13;;;3.20;99.90;;;;;;4975403;28;20029;-55
2023/02/25 07:22:57;;;;;;;3.78;2.97;;;3.20;99.90;;;;;;4977360;28;20512;-54
2023/02/25 07:25:42;;;;;;;4.80;3.08;;;3.20;99.90;;;;;;4978021;28;20041;-54
2023/02/25 07:28:28;;;;;;;5.70;3.13;;;3.20;99.90;;;;;;4976673;28;20026;-53
2023/02/25 07:31:17;;;;;;;5.85;2.75;;;3.20;99.90;;;;;;4976232;28;20489;-54
2023/02/25 07:34:03;;;;;;;4.95;2.90;;;3.20;99.90;;;;;;4974111;28;20030;-54
2023/02/25 07:36:49;;;;;;;4.00;2.85;;;3.20;99.90;;;;;;4974526;28;20035;-51
2023/02/25 07:39:35;;;;;;;3.67;2.55;;;3.20;99.90;;;;;;4974118;28;20077;-57
2023/02/25 07:42:21;;;;;;;9.43;2.95;;;3.30;99.90;;;;;;4974259;28;20111;-51
2023/02/25 07:45:09;;;;;;;3.53;2.72;;;3.20;99.90;;;;;;4974794;28;20051;-50
2023/02/25 07:47:55;;;;;;;5.80;2.63;;;3.30;99.90;;;;;;4972701;28;20042;-52
2023/02/25 07:50:41;;;;;;;4.60;2.90;;;3.30;99.90;;;;;;4974988;28;20066;-52
2023/02/25 07:53:27;;;;;;;5.00;2.95;;;3.40;99.90;;;;;;4974913;28;20478;-54
2023/02/25 07:56:14;;;;;;;5.45;3.70;;;3.40;99.90;;;;;;4973858;28;20031;-51
2023/02/25 07:59:00;;;;;;;5.47;3.42;;;3.40;99.90;;;;;;4974138;28;20432;-50
2023/02/25 08:01:46;;;;;;;4.68;3.22;;;3.10;99.90;;;;;;4959037;28;20070;-51
2023/02/25 08:04:32;;;;;;;5.65;3.58;;;3.00;99.90;;;;;;4973591;28;20031;-51
2023/02/25 08:07:19;;;;;;;5.32;3.58;;;3.00;99.90;;;;;;4973245;28;20035;-55
2023/02/25 08:10:05;;;;;;;4.63;3.28;;;2.90;99.90;;;;;;4974352;28;20026;-54
2023/02/25 08:12:51;;;;;;;6.10;3.55;;;2.70;99.90;;;;;;4954708;29;20027;-53
2023/02/25 08:15:41;;;;;;;5.70;3.78;;;2.60;99.90;;;;;;4954746;29;20042;-50
2023/02/25 08:18:28;;;;;;;4.88;3.38;;;2.60;99.90;;;;;;4955656;28;20560;-50
2023/02/25 08:21:22;;;;;;;10.98;4.32;;;2.60;99.90;;;;;;4954632;29;20498;-54
2023/02/25 08:24:08;;;;;;;5.05;3.40;;;2.50;99.90;;;;;;4954991;28;20488;-52
2023/02/25 08:26:54;;;;;;;9.02;3.40;;;2.50;99.90;;;;;;4955161;28;20033;-53
2023/02/25 08:29:40;;;;;;;4.85;3.20;;;2.60;99.90;;;;;;4955100;29;20031;-53
2023/02/25 08:32:26;;;;;;;10.98;4.47;;;2.70;99.90;;;;;;4953370;29;20114;-54
2023/02/25 08:35:13;;;;;;;3.97;3.03;;;2.70;99.90;;;;;;4953572;29;20082;-52
2023/02/25 08:37:58;;;;;;;3.90;3.13;;;2.70;99.90;;;;;;4953736;29;20114;-52
2023/02/25 08:40:44;;;;;;;3.50;2.63;;;2.70;99.90;;;;;;4966558;28;20039;-51
2023/02/25 08:43:31;;;;;;;6.88;3.00;;;2.80;99.90;;;;;;4954214;29;20031;-52
2023/02/25 08:46:17;;;;;;;6.68;2.67;;;2.70;99.90;;;;;;4954671;29;20523;-52
2023/02/25 08:49:04;;;;;;;5.25;2.90;;;2.80;99.90;;;;;;4953993;29;20058;-57
2023/02/25 08:51:50;;;;;;;3.83;2.85;;;2.70;99.90;;;;;;4954814;29;20035;-52
2023/02/25 08:54:37;;;;;;;4.32;3.05;;;2.70;99.90;;;;;;4955015;28;20696;-52
2023/02/25 08:57:25;;;;;;;4.72;2.75;;;2.80;99.90;;;;;;4955424;28;20050;-51
2023/02/25 09:00:15;;;;;;;3.83;2.75;;;2.80;99.90;;;;;;4953574;29;20042;-54
2023/02/25 09:03:01;;;;;;;6.95;4.65;;;2.80;99.90;;;;;;4953994;28;20087;-50
2023/02/25 09:05:54;;;;;;;5.95;2.67;;;2.90;99.90;;;;;;4954065;29;20518;-52
2023/02/25 09:08:40;;;;;;;3.25;2.70;;;2.90;99.90;;;;;;4954388;29;20778;-53
2023/02/25 09:11:26;;;;;;;2.72;2.47;;;3.00;99.90;;;;;;4954576;28;20512;-54
2023/02/25 09:14:13;;;;;;;4.85;2.70;;;3.10;99.90;;;;;;4953412;28;20035;-52
2023/02/25 09:17:02;;;;;;;6.32;2.40;;;3.10;99.90;;;;;;4952699;29;20023;-54
2023/02/25 09:19:48;;;;;;;5.05;3.05;;;3.10;99.90;;;;;;4953575;29;20025;-51
2023/02/25 09:22:34;;;;;;;4.40;2.53;;;3.20;99.90;;;;;;4953299;29;20408;-52
2023/02/25 09:25:20;;;;;;;5.60;2.85;;;3.20;99.90;;;;;;4955730;28;20035;-51
2023/02/25 09:28:07;;;;;;;3.95;2.92;;;3.20;99.90;;;;;;4953924;29;20019;-51
2023/02/25 09:30:54;;;;;;;4.80;3.00;;;3.10;99.90;;;;;;4952815;29;20035;-52
2023/02/25 09:33:41;;;;;;;5.50;3.38;;;3.00;99.90;;;;;;4952957;29;20511;-50
2023/02/25 09:36:27;;;;;;;4.82;3.20;;;2.90;99.90;;;;;;4952485;29;20523;-55
2023/02/25 09:39:13;;;;;;;8.10;4.65;;;2.90;99.90;;;;;;4952419;29;20560;-52
2023/02/25 09:42:16;;;;;;;6.97;3.50;;;2.70;99.90;;;;;;4953088;29;20412;-53
2023/02/25 09:45:06;;;;;;;6.20;3.67;;;2.70;99.90;;;;;;4953207;29;20543;-53
2023/02/25 09:48:00;;;;;;;5.60;3.80;;;2.80;99.90;;;;;;4951856;29;20049;-54
2023/02/25 09:50:51;;;;;;;6.35;4.20;;;2.60;99.90;;;;;;4954583;28;20027;-52
2023/02/25 09:53:47;;;;;;;5.72;4.05;;;2.50;99.90;;;;;;4951740;29;20448;-54
2023/02/25 09:56:34;;;;;;;6.82;3.92;;;2.40;99.90;;;;;;4953307;28;20023;-53
2023/02/25 09:59:20;;;;;;;7.47;4.47;;;2.50;99.90;;;;;;4952424;29;20043;-52
2023/02/25 10:02:19;;;;;;;7.55;3.95;;;2.40;99.90;;;;;;4952268;29;20024;-54
2023/02/25 10:05:17;;;;;;;8.40;4.72;;;2.60;99.90;;;;;;4952930;29;20027;-53
2023/02/25 10:08:11;;;;;;;6.82;4.40;;;2.60;99.90;;;;;;4953388;28;20050;-55
2023/02/25 10:11:08;;;;;;;7.13;4.13;;;2.60;99.90;;;;;;4952868;28;20043;-51
2023/02/25 10:14:19;;;;;;;6.78;4.95;;;2.60;99.90;;;;;;4953676;28;20071;-55
2023/02/25 10:17:08;;;;;;;9.32;5.07;;;2.60;99.90;;;;;;4957395;28;20031;-56
2023/02/25 10:20:09;;;;;;;8.23;4.68;;;2.70;99.90;;;;;;4956824;29;20443;-52
2023/02/25 10:23:09;;;;;;;6.78;4.70;;;2.70;99.90;;;;;;4956183;29;20506;-55
2023/02/25 10:26:00;;;;;;;8.25;4.50;;;2.70;99.90;;;;;;4956846;29;20492;-52
2023/02/25 10:28:51;;;;;;;5.63;4.35;;;2.70;99.90;;;;;;4956359;29;20461;-55
2023/02/25 10:31:42;;;;;;;6.32;4.45;;;2.70;99.90;;;;;;4956843;28;20042;-55
2023/02/25 10:34:29;;;;;;;6.43;4.50;;;2.90;99.90;;;;;;4956346;29;20506;-51
2023/02/25 10:37:25;;;;;;;6.85;4.20;;;2.90;99.90;;;;;;4957223;28;20028;-55
2023/02/25 10:40:23;;;;;;;5.95;4.95;;;2.90;99.90;;;;;;4957891;29;20457;-54
2023/02/25 10:43:21;;;;;;;6.38;4.68;;;2.80;99.90;;;;;;4957942;28;20098;-56
2023/02/25 10:46:31;;;;;;;6.43;4.15;;;2.90;99.90;;;;;;4957298;29;20175;-58
2023/02/25 10:49:24;;;;;;;8.68;4.10;;;2.90;99.90;;;;;;4956291;29;20034;-53
2023/02/25 10:52:16;;;;;;;5.20;4.30;;;2.90;99.90;;;;;;4957154;28;20035;-54
2023/02/25 10:55:02;;;;;;;4.78;3.58;;;2.90;99.90;;;;;;4956281;29;20444;-52
2023/02/25 10:57:49;;;;;;;5.85;4.10;;;3.00;99.90;;;;;;4955923;29;20041;-51
2023/02/25 11:00:37;;;;;;;4.90;3.50;;;2.90;99.90;;;;;;4956891;28;20023;-55
2023/02/25 11:03:24;;;;;;;6.10;3.70;;;2.90;99.90;;;;;;4955557;29;20020;-54
2023/02/25 11:06:22;;;;;;;5.07;3.50;;;2.90;99.90;;;;;;4956302;29;20040;-60
2023/02/25 11:09:20;;;;;;;5.07;4.38;;;3.00;99.90;;;;;;4956729;29;20055;-51
2023/02/25 11:12:17;;;;;;;5.75;3.15;;;3.10;99.90;;;;;;4956008;29;20059;-51
2023/02/25 11:15:36;;;;;;;3.03;2.60;;;3.10;99.90;;;;;;4956748;28;20019;-55
2023/02/25 11:18:30;;;;;;;3.63;2.70;;;3.10;99.90;;;;;;4954856;29;20035;-54
2023/02/25 11:21:29;;;;;;;4.10;2.88;;;3.10;99.90;;;;;;4956457;28;20119;-56
2023/02/25 11:24:32;;;;;;;3.33;2.70;;;3.00;99.90;;;;;;4955439;29;20512;-51
2023/02/25 11:27:40;;;;;;;7.20;2.97;;;3.10;99.90;;;;;;4954782;29;20039;-54
2023/02/25 11:30:32;;;;;;;4.25;2.70;;;3.20;99.90;;;;;;4955753;29;20027;-55
2023/02/25 11:33:41;;;;;;;3.08;2.70;;;3.30;99.90;;;;;;4956128;28;20055;-55
2023/02/25 11:36:32;;;;;;;5.07;2.88;;;3.00;99.90;;;;;;4955884;28;20083;-55
2023/02/25 11:39:24;;;;;;;4.57;3.00;;;2.90;99.90;;;;;;4955612;29;20042;-54
2023/02/25 11:42:24;;;;;;;4.05;2.95;;;2.90;99.90;;;;;;4956187;29;20038;-56
2023/02/25 11:45:16;;;;;;;5.18;2.85;;;2.90;99.90;;;;;;4962273;28;20070;-56
2023/02/25 11:48:05;;;;;;;4.65;2.75;;;2.90;99.90;;;;;;4955350;29;20547;-53
2023/02/25 11:51:12;;;;;;;4.13;3.00;;;2.90;99.90;;;;;;4955267;29;20467;-53
2023/02/25 11:54:16;;;;;;;3.05;2.50;;;2.80;99.90;;;;;;4954968;29;20034;-54
2023/02/25 11:57:12;;;;;;;3.70;2.50;;;2.70;99.90;;;;;;4954506;29;20028;-54
2023/02/25 12:00:38;;;;;;;6.57;3.38;;;2.70;99.90;;;;;;4954968;29;20127;-53
2023/02/25 12:03:42;;;;;;;4.35;2.88;;;2.60;99.90;;;;;;4956106;28;20045;-54
2023/02/25 12:07:01;;;;;;;3.22;2.67;;;2.70;99.90;;;;;;4954575;29;20110;-57
2023/02/25 12:09:56;;;;;;;3.58;3.00;;;2.70;99.90;;;;;;4955225;29;20051;-52
2023/02/25 12:13:19;;;;;;;3.53;3.03;;;2.60;99.90;;;;;;4955437;29;20019;-55
2023/02/25 12:16:27;;;;;;;3.60;3.08;;;2.80;99.90;;;;;;4954556;28;20042;-51
2023/02/25 12:19:39;;;;;;;4.00;3.00;;;2.80;99.90;;;;;;4954879;29;20047;-52
2023/02/25 12:22:49;;;;;;;5.82;3.13;;;2.80;99.90;;;;;;4973637;28;20031;-52
2023/02/25 12:25:40;;;;;;;3.53;2.95;;;2.80;99.90;;;;;;4973894;28;20495;-53
2023/02/25 12:28:49;;;;;;;3.88;2.72;;;2.90;99.90;;;;;;4973944;28;20031;-54
2023/02/25 12:32:01;;;;;;;4.75;3.60;;;3.00;99.90;;;;;;4973782;28;20069;-55
2023/02/25 12:35:25;;;;;;;4.05;2.83;;;3.00;99.90;;;;;;4973870;28;20023;-55
2023/02/25 12:38:53;;;;;;;3.10;2.55;;;3.00;99.90;;;;;;4969368;28;20047;-54
2023/02/25 12:41:57;;;;;;;4.70;2.22;;;3.10;99.90;;;;;;4935951;29;20095;-57
2023/02/25 12:45:11;;;;;;;3.30;3.00;;;3.10;99.90;;;;;;4955224;29;20023;-52
2023/02/25 12:48:14;;;;;;;4.93;2.58;;;3.20;99.90;;;;;;4954344;29;20412;-54
2023/02/25 12:51:20;;;;;;;2.53;2.30;;;3.30;99.90;;;;;;4954635;29;20031;-53
2023/02/25 12:54:16;;;;;;;3.85;2.22;;;3.30;99.90;;;;;;4954801;29;20027;-56
2023/02/25 12:57:18;;;;;;;2.53;2.03;;;3.20;99.90;;;;;;4953801;29;20033;-52
2023/02/25 13:00:41;;;;;;;2.83;2.10;;;3.30;99.90;;;;;;4954896;29;20099;-55
2023/02/25 13:04:06;;;;;;;5.00;2.17;;;3.40;99.90;;;;;;4955016;29;20028;-55
2023/02/25 13:07:21;;;;;;;4.88;2.50;;;3.50;99.90;;;;;;4963383;28;20027;-50
2023/02/25 13:10:27;;;;;;;3.28;2.20;;;3.60;99.90;;;;;;4974267;28;20015;-55
2023/02/25 13:13:37;;;;;;;4.10;2.20;;;3.60;99.90;;;;;;4973216;28;20411;-56
2023/02/25 13:16:45;;;;;;;4.03;2.10;;;3.50;99.90;;;;;;4972295;28;20546;-56
2023/02/25 13:19:52;;;;;;;3.58;2.13;;;3.40;99.90;;;;;;4974016;28;20454;-51
2023/02/25 13:23:06;;;;;;;2.42;2.22;;;3.50;99.90;;;;;;4973229;28;20031;-51
2023/02/25 13:25:52;;;;;;;3.47;2.13;;;3.40;99.90;;;;;;4973531;28;20030;-50
2023/02/25 13:28:52;;;;;;;3.25;1.98;;;3.10;99.90;;;;;;4973407;28;20030;-54
2023/02/25 13:32:08;;;;;;;2.45;1.55;;;2.70;99.90;;;;;;4973398;28;20031;-54
2023/02/25 13:35:02;;;;;;;1.30;1.20;;;2.10;99.90;;;;;;4973352;28;20031;-54
2023/02/25 13:38:18;;;;;;;3.50;1.50;;;2.00;99.90;;;;;;4973328;28;20019;-50
2023/02/25 13:41:28;;;;;;;1.40;1.30;;;2.00;99.90;;;;;;4973204;28;20254;-53
2023/02/25 13:44:29;;;;;;;1.80;1.60;;;2.10;99.90;;;;;;4973327;28;20027;-56
2023/02/25 13:47:24;;;;;;;2.10;1.60;;;2.00;99.90;;;;;;4973053;28;20522;-55
2023/02/25 13:50:36;;;;;;;2.78;1.67;;;1.90;99.90;;;;;;4972865;28;20026;-54
2023/02/25 13:54:10;;;;;;;2.20;1.90;;;2.10;99.90;;;;;;4973279;28;20027;-54
2023/02/25 13:57:24;;;;;;;2.65;1.90;;;2.10;99.90;;;;;;4969568;28;20554;-53
2023/02/25 14:00:29;;;;;;;2.25;2.05;;;2.30;99.90;;;;;;4973314;28;20057;-53
2023/02/25 14:03:47;;;;;;;2.47;2.00;;;2.30;99.90;;;;;;4973008;28;20027;-55
2023/02/25 14:07:07;;;;;;;3.72;2.15;;;2.40;99.90;;;;;;4973071;28;20079;-56
2023/02/25 14:10:28;;;;;;;3.35;2.05;;;2.50;99.90;;;;;;4974036;28;20019;-56
2023/02/25 14:13:15;;;;;;;4.18;1.58;;;2.30;99.90;;;;;;4986818;28;20049;-53
2023/02/25 14:16:26;;;;;;;2.05;1.55;;;2.30;99.90;;;;;;4973344;28;20058;-56
2023/02/25 14:19:28;;;;;;;1.65;1.35;;;2.30;99.90;;;;;;4972743;28;20403;-55
2023/02/25 14:22:26;;;;;;;1.35;1.20;;;2.30;99.90;;;;;;4972668;28;20278;-56
2023/02/25 14:25:44;;;;;;;1.45;1.27;;;2.30;99.90;;;;;;4972702;28;20051;-54
2023/02/25 14:28:57;;;;;;;3.00;1.55;;;2.40;99.90;;;;;;4972632;28;20108;-52
2023/02/25 14:32:12;;;;;;;4.13;1.80;;;2.50;99.90;;;;;;4972119;28;20058;-53
2023/02/25 14:35:17;;;;;;;5.63;1.77;;;2.50;99.90;;;;;;4972658;28;20404;-53
2023/02/25 14:38:03;;;;;;;3.45;1.67;;;2.50;99.90;;;;;;4972878;28;20114;-52
2023/02/25 14:41:17;;;;;;;2.40;1.45;;;2.60;99.90;;;;;;4972854;28;20027;-54
2023/02/25 14:44:11;;;;;;;1.65;1.27;;;2.60;99.90;;;;;;4972865;28;20034;-50
2023/02/25 14:47:04;;;;;;;2.78;1.80;;;2.60;99.90;;;;;;4972491;28;20026;-57
2023/02/25 14:50:14;;;;;;;4.60;1.70;;;2.80;99.90;;;;;;4971770;28;20281;-54
2023/02/25 14:53:23;;;;;;;4.43;1.65;;;2.80;99.90;;;;;;4972041;28;20018;-58
2023/02/25 14:56:15;;;;;;;4.45;1.73;;;2.80;99.90;;;;;;4971940;28;20061;-51
2023/02/25 14:59:16;;;;;;;2.03;1.83;;;2.80;99.90;;;;;;4972353;28;20019;-53
2023/02/25 15:02:47;;;;;;;2.47;2.20;;;2.50;99.90;;;;;;4975722;28;20058;-55
2023/02/25 15:05:41;;;;;;;2.05;1.90;;;2.60;99.90;;;;;;4952485;28;20037;-54
2023/02/25 15:09:01;;;;;;;2.05;1.85;;;2.50;99.90;;;;;;4975632;28;20027;-54
2023/02/25 15:11:56;;;;;;;3.85;2.30;;;2.50;99.90;;;;;;4975709;28;20023;-53